sensor_id;sensor_type;location;lat;lon;timestamp;P1;durP1;ratioP1;P2;durP2;ratioP2
35522;SDS011;61478;50.820;4.330;2023-04-07T00:00:55;19.10;;;8.57;;
35522;SDS011;61478;50.820;4.330;2023-04-07T00:03:21;22.50;;;9.40;;
35522;SDS011;61478;50.820;4.330;2023-04-07T00:05:48;24.70;;;9.10;;
35522;SDS011;61478;50.820;4.330;2023-04-07T00:08:14;20.55;;;9.32;;
35522;SDS011;61478;50.820;4.330;2023-04-07T00:10:40;17.65;;;8.68;;
35522;SDS011;61478;50.820;4.330;2023-04-07T00:13:07;21.70;;;9.23;;
35522;SDS011;61478;50.820;4.330;2023-04-07T00:15:33;20.95;;;9.02;;
35522;SDS011;61478;50.820;4.330;2023-04-07T00:17:59;22.98;;;9.93;;
35522;SDS011;61478;50.820;4.330;2023-04-07T00:20:28;19.92;;;9.40;;
35522;SDS011;61478;50.820;4.330;2023-04-07T00:22:54;24.42;;;10.77;;
35522;SDS011;61478;50.820;4.330;2023-04-07T00:25:20;23.70;;;10.90;;
35522;SDS011;61478;50.820;4.330;2023-04-07T00:27:46;21.33;;;10.77;;
35522;SDS011;61478;50.820;4.330;2023-04-07T00:30:13;26.38;;;10.02;;
35522;SDS011;61478;50.820;4.330;2023-04-07T00:32:39;20.42;;;9.63;;
35522;SDS011;61478;50.820;4.330;2023-04-07T00:35:06;24.58;;;9.45;;
35522;SDS011;61478;50.820;4.330;2023-04-07T00:37:32;26.30;;;9.52;;
35522;SDS011;61478;50.820;4.330;2023-04-07T00:39:57;27.85;;;10.05;;
35522;SDS011;61478;50.820;4.330;2023-04-07T00:42:26;15.27;;;8.30;;
35522;SDS011;61478;50.820;4.330;2023-04-07T00:44:52;24.17;;;9.98;;
35522;SDS011;61478;50.820;4.330;2023-04-07T00:47:18;22.75;;;9.45;;
35522;SDS011;61478;50.820;4.330;2023-04-07T00:49:44;21.30;;;9.25;;
35522;SDS011;61478;50.820;4.330;2023-04-07T00:52:11;22.27;;;8.20;;
35522;SDS011;61478;50.820;4.330;2023-04-07T00:54:37;26.58;;;9.02;;
35522;SDS011;61478;50.820;4.330;2023-04-07T00:57:06;26.45;;;9.70;;
35522;SDS011;61478;50.820;4.330;2023-04-07T00:59:31;18.48;;;8.88;;
35522;SDS011;61478;50.820;4.330;2023-04-07T01:05:04;23.05;;;10.30;;
35522;SDS011;61478;50.820;4.330;2023-04-07T01:10:15;18.42;;;9.95;;
35522;SDS011;61478;50.820;4.330;2023-04-07T01:13:00;16.13;;;9.73;;
35522;SDS011;61478;50.820;4.330;2023-04-07T01:15:30;17.75;;;9.38;;
35522;SDS011;61478;50.820;4.330;2023-04-07T01:18:07;16.48;;;9.15;;
35522;SDS011;61478;50.820;4.330;2023-04-07T01:20:42;18.38;;;9.65;;
35522;SDS011;61478;50.820;4.330;2023-04-07T01:23:10;18.20;;;10.02;;
35522;SDS011;61478;50.820;4.330;2023-04-07T01:28:40;18.95;;;10.18;;
35522;SDS011;61478;50.820;4.330;2023-04-07T01:31:09;20.77;;;10.40;;
35522;SDS011;61478;50.820;4.330;2023-04-07T01:33:39;18.58;;;10.40;;
35522;SDS011;61478;50.820;4.330;2023-04-07T01:36:08;22.17;;;11.20;;
35522;SDS011;61478;50.820;4.330;2023-04-07T01:38:39;16.48;;;11.13;;
35522;SDS011;61478;50.820;4.330;2023-04-07T01:41:07;19.13;;;11.18;;
35522;SDS011;61478;50.820;4.330;2023-04-07T01:43:35;21.45;;;10.20;;
35522;SDS011;61478;50.820;4.330;2023-04-07T01:46:03;20.83;;;11.45;;
35522;SDS011;61478;50.820;4.330;2023-04-07T01:48:30;19.90;;;10.50;;
35522;SDS011;61478;50.820;4.330;2023-04-07T01:50:56;20.70;;;10.18;;
35522;SDS011;61478;50.820;4.330;2023-04-07T01:53:23;21.55;;;12.10;;
35522;SDS011;61478;50.820;4.330;2023-04-07T01:55:51;16.63;;;11.13;;
35522;SDS011;61478;50.820;4.330;2023-04-07T01:58:18;20.65;;;10.88;;
35522;SDS011;61478;50.820;4.330;2023-04-07T02:00:44;17.25;;;11.18;;
35522;SDS011;61478;50.820;4.330;2023-04-07T02:03:22;19.17;;;11.95;;
35522;SDS011;61478;50.820;4.330;2023-04-07T02:05:53;18.35;;;11.25;;
35522;SDS011;61478;50.820;4.330;2023-04-07T02:08:21;18.48;;;10.80;;
35522;SDS011;61478;50.820;4.330;2023-04-07T02:10:51;20.95;;;11.88;;
35522;SDS011;61478;50.820;4.330;2023-04-07T02:13:19;18.23;;;11.68;;
35522;SDS011;61478;50.820;4.330;2023-04-07T02:15:45;20.40;;;12.60;;
35522;SDS011;61478;50.820;4.330;2023-04-07T02:18:14;17.50;;;11.55;;
35522;SDS011;61478;50.820;4.330;2023-04-07T02:20:42;19.88;;;11.40;;
35522;SDS011;61478;50.820;4.330;2023-04-07T02:23:11;18.67;;;12.10;;
35522;SDS011;61478;50.820;4.330;2023-04-07T02:25:37;18.33;;;12.27;;
35522;SDS011;61478;50.820;4.330;2023-04-07T02:28:03;23.15;;;12.02;;
35522;SDS011;61478;50.820;4.330;2023-04-07T02:30:30;21.25;;;11.93;;
35522;SDS011;61478;50.820;4.330;2023-04-07T02:32:57;14.65;;;10.95;;
35522;SDS011;61478;50.820;4.330;2023-04-07T02:35:28;19.92;;;11.73;;
35522;SDS011;61478;50.820;4.330;2023-04-07T02:37:57;19.35;;;11.00;;
35522;SDS011;61478;50.820;4.330;2023-04-07T02:40:23;20.95;;;11.70;;
35522;SDS011;61478;50.820;4.330;2023-04-07T02:42:49;17.85;;;11.50;;
35522;SDS011;61478;50.820;4.330;2023-04-07T02:45:15;17.55;;;11.15;;
35522;SDS011;61478;50.820;4.330;2023-04-07T02:47:41;16.08;;;10.85;;
35522;SDS011;61478;50.820;4.330;2023-04-07T02:50:07;15.45;;;11.05;;
35522;SDS011;61478;50.820;4.330;2023-04-07T02:52:33;16.85;;;10.32;;
35522;SDS011;61478;50.820;4.330;2023-04-07T02:54:59;17.85;;;11.27;;
35522;SDS011;61478;50.820;4.330;2023-04-07T02:57:25;20.30;;;10.65;;
35522;SDS011;61478;50.820;4.330;2023-04-07T02:59:51;17.23;;;9.90;;
35522;SDS011;61478;50.820;4.330;2023-04-07T03:02:19;13.20;;;8.63;;
35522;SDS011;61478;50.820;4.330;2023-04-07T03:04:45;15.82;;;9.23;;
35522;SDS011;61478;50.820;4.330;2023-04-07T03:07:11;11.05;;;8.07;;
35522;SDS011;61478;50.820;4.330;2023-04-07T03:09:37;12.35;;;8.65;;
35522;SDS011;61478;50.820;4.330;2023-04-07T03:12:03;14.30;;;9.05;;
35522;SDS011;61478;50.820;4.330;2023-04-07T03:14:29;16.98;;;9.05;;
35522;SDS011;61478;50.820;4.330;2023-04-07T03:16:55;13.60;;;8.70;;
35522;SDS011;61478;50.820;4.330;2023-04-07T03:19:21;19.95;;;8.75;;
35522;SDS011;61478;50.820;4.330;2023-04-07T03:21:47;19.35;;;9.38;;
35522;SDS011;61478;50.820;4.330;2023-04-07T03:24:14;12.75;;;7.85;;
35522;SDS011;61478;50.820;4.330;2023-04-07T03:26:41;16.95;;;8.75;;
35522;SDS011;61478;50.820;4.330;2023-04-07T03:29:07;17.38;;;9.20;;
35522;SDS011;61478;50.820;4.330;2023-04-07T03:31:33;11.60;;;8.13;;
35522;SDS011;61478;50.820;4.330;2023-04-07T03:34:02;16.83;;;9.10;;
35522;SDS011;61478;50.820;4.330;2023-04-07T03:36:29;17.08;;;8.85;;
35522;SDS011;61478;50.820;4.330;2023-04-07T03:38:56;18.92;;;9.57;;
35522;SDS011;61478;50.820;4.330;2023-04-07T03:41:22;14.85;;;8.95;;
35522;SDS011;61478;50.820;4.330;2023-04-07T03:43:48;13.65;;;9.02;;
35522;SDS011;61478;50.820;4.330;2023-04-07T03:46:15;18.23;;;9.48;;
35522;SDS011;61478;50.820;4.330;2023-04-07T03:48:43;22.05;;;9.32;;
35522;SDS011;61478;50.820;4.330;2023-04-07T03:51:09;16.05;;;10.23;;
35522;SDS011;61478;50.820;4.330;2023-04-07T03:53:35;19.95;;;10.45;;
35522;SDS011;61478;50.820;4.330;2023-04-07T03:56:01;18.95;;;9.73;;
35522;SDS011;61478;50.820;4.330;2023-04-07T03:58:27;16.77;;;9.80;;
35522;SDS011;61478;50.820;4.330;2023-04-07T04:00:54;19.15;;;10.75;;
35522;SDS011;61478;50.820;4.330;2023-04-07T04:03:20;15.88;;;10.32;;
35522;SDS011;61478;50.820;4.330;2023-04-07T04:05:46;20.05;;;11.43;;
35522;SDS011;61478;50.820;4.330;2023-04-07T04:08:12;19.15;;;11.85;;
35522;SDS011;61478;50.820;4.330;2023-04-07T04:10:38;25.00;;;14.88;;
35522;SDS011;61478;50.820;4.330;2023-04-07T04:13:06;32.03;;;16.20;;
35522;SDS011;61478;50.820;4.330;2023-04-07T04:15:32;31.35;;;17.17;;
35522;SDS011;61478;50.820;4.330;2023-04-07T04:17:58;38.13;;;18.52;;
35522;SDS011;61478;50.820;4.330;2023-04-07T04:20:24;34.03;;;18.45;;
35522;SDS011;61478;50.820;4.330;2023-04-07T04:22:50;39.17;;;17.88;;
35522;SDS011;61478;50.820;4.330;2023-04-07T04:25:16;39.92;;;19.90;;
35522;SDS011;61478;50.820;4.330;2023-04-07T04:27:42;34.88;;;19.65;;
35522;SDS011;61478;50.820;4.330;2023-04-07T04:30:08;36.05;;;17.98;;
35522;SDS011;61478;50.820;4.330;2023-04-07T04:32:35;44.80;;;20.02;;
35522;SDS011;61478;50.820;4.330;2023-04-07T04:35:01;40.60;;;19.58;;
35522;SDS011;61478;50.820;4.330;2023-04-07T04:37:27;42.42;;;21.60;;
35522;SDS011;61478;50.820;4.330;2023-04-07T04:39:52;42.90;;;23.27;;
35522;SDS011;61478;50.820;4.330;2023-04-07T04:42:18;47.30;;;23.15;;
35522;SDS011;61478;50.820;4.330;2023-04-07T04:44:44;47.30;;;22.33;;
35522;SDS011;61478;50.820;4.330;2023-04-07T04:47:10;52.63;;;25.30;;
35522;SDS011;61478;50.820;4.330;2023-04-07T04:49:36;55.95;;;26.08;;
35522;SDS011;61478;50.820;4.330;2023-04-07T04:52:03;58.55;;;25.95;;
35522;SDS011;61478;50.820;4.330;2023-04-07T04:54:29;62.03;;;27.83;;
35522;SDS011;61478;50.820;4.330;2023-04-07T04:56:55;66.65;;;29.05;;
35522;SDS011;61478;50.820;4.330;2023-04-07T04:59:22;61.33;;;28.02;;
35522;SDS011;61478;50.820;4.330;2023-04-07T05:01:48;54.83;;;28.25;;
35522;SDS011;61478;50.820;4.330;2023-04-07T05:04:13;62.17;;;27.77;;
35522;SDS011;61478;50.820;4.330;2023-04-07T05:06:40;61.03;;;27.55;;
35522;SDS011;61478;50.820;4.330;2023-04-07T05:09:06;60.63;;;28.10;;
35522;SDS011;61478;50.820;4.330;2023-04-07T05:11:32;60.00;;;27.65;;
35522;SDS011;61478;50.820;4.330;2023-04-07T05:13:58;60.67;;;28.15;;
35522;SDS011;61478;50.820;4.330;2023-04-07T05:16:24;62.17;;;28.45;;
35522;SDS011;61478;50.820;4.330;2023-04-07T05:18:50;57.30;;;26.17;;
35522;SDS011;61478;50.820;4.330;2023-04-07T05:21:16;55.25;;;26.45;;
35522;SDS011;61478;50.820;4.330;2023-04-07T05:23:44;57.35;;;27.08;;
35522;SDS011;61478;50.820;4.330;2023-04-07T05:26:10;56.15;;;26.48;;
35522;SDS011;61478;50.820;4.330;2023-04-07T05:28:36;59.20;;;28.45;;
35522;SDS011;61478;50.820;4.330;2023-04-07T05:31:02;53.67;;;26.75;;
35522;SDS011;61478;50.820;4.330;2023-04-07T05:33:28;55.25;;;27.30;;
35522;SDS011;61478;50.820;4.330;2023-04-07T05:35:53;60.15;;;28.58;;
35522;SDS011;61478;50.820;4.330;2023-04-07T05:38:19;59.90;;;29.30;;
35522;SDS011;61478;50.820;4.330;2023-04-07T05:40:45;65.18;;;31.20;;
35522;SDS011;61478;50.820;4.330;2023-04-07T05:43:12;63.33;;;29.70;;
35522;SDS011;61478;50.820;4.330;2023-04-07T05:45:38;61.70;;;28.10;;
35522;SDS011;61478;50.820;4.330;2023-04-07T05:48:04;54.53;;;27.25;;
35522;SDS011;61478;50.820;4.330;2023-04-07T05:50:30;54.85;;;29.48;;
35522;SDS011;61478;50.820;4.330;2023-04-07T05:52:57;53.08;;;28.40;;
35522;SDS011;61478;50.820;4.330;2023-04-07T05:55:22;49.42;;;25.67;;
35522;SDS011;61478;50.820;4.330;2023-04-07T05:57:51;46.28;;;25.27;;
35522;SDS011;61478;50.820;4.330;2023-04-07T06:00:18;54.00;;;24.98;;
35522;SDS011;61478;50.820;4.330;2023-04-07T06:02:44;52.28;;;24.77;;
35522;SDS011;61478;50.820;4.330;2023-04-07T06:05:10;49.58;;;25.05;;
35522;SDS011;61478;50.820;4.330;2023-04-07T06:07:36;45.38;;;24.52;;
35522;SDS011;61478;50.820;4.330;2023-04-07T06:10:02;52.97;;;24.73;;
35522;SDS011;61478;50.820;4.330;2023-04-07T06:12:29;49.63;;;25.83;;
35522;SDS011;61478;50.820;4.330;2023-04-07T06:14:55;48.50;;;25.77;;
35522;SDS011;61478;50.820;4.330;2023-04-07T06:17:21;52.22;;;26.38;;
35522;SDS011;61478;50.820;4.330;2023-04-07T06:19:48;49.28;;;27.38;;
35522;SDS011;61478;50.820;4.330;2023-04-07T06:22:13;51.47;;;26.92;;
35522;SDS011;61478;50.820;4.330;2023-04-07T06:24:40;50.83;;;27.77;;
35522;SDS011;61478;50.820;4.330;2023-04-07T06:27:06;49.15;;;26.75;;
35522;SDS011;61478;50.820;4.330;2023-04-07T06:29:32;50.67;;;28.90;;
35522;SDS011;61478;50.820;4.330;2023-04-07T06:31:59;51.25;;;27.27;;
35522;SDS011;61478;50.820;4.330;2023-04-07T06:34:25;49.38;;;27.50;;
35522;SDS011;61478;50.820;4.330;2023-04-07T06:36:51;47.13;;;27.70;;
35522;SDS011;61478;50.820;4.330;2023-04-07T06:39:17;48.47;;;27.90;;
35522;SDS011;61478;50.820;4.330;2023-04-07T06:41:44;44.38;;;27.05;;
35522;SDS011;61478;50.820;4.330;2023-04-07T06:44:11;47.70;;;28.10;;
35522;SDS011;61478;50.820;4.330;2023-04-07T06:46:37;44.40;;;26.63;;
35522;SDS011;61478;50.820;4.330;2023-04-07T06:49:05;44.28;;;25.75;;
35522;SDS011;61478;50.820;4.330;2023-04-07T06:51:31;43.67;;;27.08;;
35522;SDS011;61478;50.820;4.330;2023-04-07T06:53:57;43.35;;;26.00;;
35522;SDS011;61478;50.820;4.330;2023-04-07T06:56:23;44.20;;;27.52;;
35522;SDS011;61478;50.820;4.330;2023-04-07T06:58:50;46.70;;;27.08;;
35522;SDS011;61478;50.820;4.330;2023-04-07T07:01:15;45.63;;;26.23;;
35522;SDS011;61478;50.820;4.330;2023-04-07T07:03:41;38.88;;;22.92;;
35522;SDS011;61478;50.820;4.330;2023-04-07T07:06:07;41.03;;;22.25;;
35522;SDS011;61478;50.820;4.330;2023-04-07T07:08:33;42.20;;;22.67;;
35522;SDS011;61478;50.820;4.330;2023-04-07T07:10:59;33.05;;;22.30;;
35522;SDS011;61478;50.820;4.330;2023-04-07T07:13:25;36.47;;;20.63;;
35522;SDS011;61478;50.820;4.330;2023-04-07T07:15:52;37.40;;;19.08;;
35522;SDS011;61478;50.820;4.330;2023-04-07T07:18:19;28.77;;;16.58;;
35522;SDS011;61478;50.820;4.330;2023-04-07T07:20:46;32.92;;;15.98;;
35522;SDS011;61478;50.820;4.330;2023-04-07T07:23:12;27.23;;;14.85;;
35522;SDS011;61478;50.820;4.330;2023-04-07T07:25:38;26.80;;;15.10;;
35522;SDS011;61478;50.820;4.330;2023-04-07T07:28:04;27.20;;;15.07;;
35522;SDS011;61478;50.820;4.330;2023-04-07T07:30:30;23.88;;;14.60;;
35522;SDS011;61478;50.820;4.330;2023-04-07T07:32:56;25.80;;;14.02;;
35522;SDS011;61478;50.820;4.330;2023-04-07T07:35:22;25.02;;;12.88;;
35522;SDS011;61478;50.820;4.330;2023-04-07T07:37:49;22.13;;;13.23;;
35522;SDS011;61478;50.820;4.330;2023-04-07T07:40:16;28.33;;;15.52;;
35522;SDS011;61478;50.820;4.330;2023-04-07T07:42:42;23.27;;;11.52;;
35522;SDS011;61478;50.820;4.330;2023-04-07T07:45:09;15.30;;;10.65;;
35522;SDS011;61478;50.820;4.330;2023-04-07T07:47:37;19.50;;;9.65;;
35522;SDS011;61478;50.820;4.330;2023-04-07T07:50:03;21.63;;;9.23;;
35522;SDS011;61478;50.820;4.330;2023-04-07T07:52:29;16.42;;;8.93;;
35522;SDS011;61478;50.820;4.330;2023-04-07T07:54:55;15.60;;;8.75;;
35522;SDS011;61478;50.820;4.330;2023-04-07T07:57:21;16.85;;;9.77;;
35522;SDS011;61478;50.820;4.330;2023-04-07T07:59:47;18.90;;;9.45;;
35522;SDS011;61478;50.820;4.330;2023-04-07T08:02:13;21.35;;;9.18;;
35522;SDS011;61478;50.820;4.330;2023-04-07T08:04:39;17.98;;;8.95;;
35522;SDS011;61478;50.820;4.330;2023-04-07T08:07:06;19.67;;;9.05;;
35522;SDS011;61478;50.820;4.330;2023-04-07T08:09:32;20.08;;;9.45;;
35522;SDS011;61478;50.820;4.330;2023-04-07T08:11:58;25.83;;;9.60;;
35522;SDS011;61478;50.820;4.330;2023-04-07T08:14:24;16.30;;;9.02;;
35522;SDS011;61478;50.820;4.330;2023-04-07T08:16:50;17.50;;;9.35;;
35522;SDS011;61478;50.820;4.330;2023-04-07T08:19:16;18.75;;;7.97;;
35522;SDS011;61478;50.820;4.330;2023-04-07T08:21:42;15.13;;;7.90;;
35522;SDS011;61478;50.820;4.330;2023-04-07T08:24:08;19.05;;;7.75;;
35522;SDS011;61478;50.820;4.330;2023-04-07T08:26:34;18.30;;;7.55;;
35522;SDS011;61478;50.820;4.330;2023-04-07T08:29:03;15.20;;;7.13;;
35522;SDS011;61478;50.820;4.330;2023-04-07T08:31:29;14.10;;;6.65;;
35522;SDS011;61478;50.820;4.330;2023-04-07T08:33:55;11.27;;;5.97;;
35522;SDS011;61478;50.820;4.330;2023-04-07T08:36:23;13.50;;;6.00;;
35522;SDS011;61478;50.820;4.330;2023-04-07T08:38:50;13.02;;;5.85;;
35522;SDS011;61478;50.820;4.330;2023-04-07T08:41:21;18.42;;;6.00;;
35522;SDS011;61478;50.820;4.330;2023-04-07T08:44:02;13.52;;;6.30;;
35522;SDS011;61478;50.820;4.330;2023-04-07T08:46:28;13.40;;;5.88;;
35522;SDS011;61478;50.820;4.330;2023-04-07T08:48:56;15.02;;;5.78;;
35522;SDS011;61478;50.820;4.330;2023-04-07T08:51:26;22.73;;;7.20;;
35522;SDS011;61478;50.820;4.330;2023-04-07T08:53:54;24.50;;;7.03;;
35522;SDS011;61478;50.820;4.330;2023-04-07T08:56:31;14.02;;;5.53;;
35522;SDS011;61478;50.820;4.330;2023-04-07T08:58:59;13.18;;;6.40;;
35522;SDS011;61478;50.820;4.330;2023-04-07T09:01:29;14.00;;;5.88;;
35522;SDS011;61478;50.820;4.330;2023-04-07T09:03:56;14.57;;;5.90;;
35522;SDS011;61478;50.820;4.330;2023-04-07T09:06:22;15.52;;;5.82;;
35522;SDS011;61478;50.820;4.330;2023-04-07T09:08:49;10.93;;;6.60;;
35522;SDS011;61478;50.820;4.330;2023-04-07T09:11:15;10.88;;;6.00;;
35522;SDS011;61478;50.820;4.330;2023-04-07T09:13:41;11.48;;;6.90;;
35522;SDS011;61478;50.820;4.330;2023-04-07T09:16:07;14.45;;;6.70;;
35522;SDS011;61478;50.820;4.330;2023-04-07T09:18:33;12.00;;;4.70;;
35522;SDS011;61478;50.820;4.330;2023-04-07T09:21:00;10.73;;;4.65;;
35522;SDS011;61478;50.820;4.330;2023-04-07T09:23:32;14.38;;;3.80;;
35522;SDS011;61478;50.820;4.330;2023-04-07T09:26:00;11.65;;;4.25;;
35522;SDS011;61478;50.820;4.330;2023-04-07T09:28:46;16.25;;;3.75;;
35522;SDS011;61478;50.820;4.330;2023-04-07T09:31:20;7.88;;;2.30;;
35522;SDS011;61478;50.820;4.330;2023-04-07T09:33:48;10.23;;;2.22;;
35522;SDS011;61478;50.820;4.330;2023-04-07T09:36:14;14.00;;;2.25;;
35522;SDS011;61478;50.820;4.330;2023-04-07T09:38:41;12.68;;;2.35;;
35522;SDS011;61478;50.820;4.330;2023-04-07T09:41:09;11.05;;;2.10;;
35522;SDS011;61478;50.820;4.330;2023-04-07T09:43:40;12.63;;;1.55;;
35522;SDS011;61478;50.820;4.330;2023-04-07T09:46:10;6.10;;;1.27;;
35522;SDS011;61478;50.820;4.330;2023-04-07T09:48:40;4.35;;;1.65;;
35522;SDS011;61478;50.820;4.330;2023-04-07T09:51:10;7.53;;;1.42;;
35522;SDS011;61478;50.820;4.330;2023-04-07T09:53:41;11.20;;;2.00;;
35522;SDS011;61478;50.820;4.330;2023-04-07T09:56:16;3.88;;;1.20;;
35522;SDS011;61478;50.820;4.330;2023-04-07T09:58:46;8.30;;;1.40;;
35522;SDS011;61478;50.820;4.330;2023-04-07T10:01:13;10.60;;;1.60;;
35522;SDS011;61478;50.820;4.330;2023-04-07T10:03:41;4.05;;;1.23;;
35522;SDS011;61478;50.820;4.330;2023-04-07T10:06:08;6.40;;;2.08;;
35522;SDS011;61478;50.820;4.330;2023-04-07T10:08:35;9.85;;;1.80;;
35522;SDS011;61478;50.820;4.330;2023-04-07T10:11:03;16.70;;;2.45;;
35522;SDS011;61478;50.820;4.330;2023-04-07T10:13:33;12.48;;;2.00;;
35522;SDS011;61478;50.820;4.330;2023-04-07T10:16:04;14.43;;;2.75;;
35522;SDS011;61478;50.820;4.330;2023-04-07T10:18:34;3.78;;;1.35;;
35522;SDS011;61478;50.820;4.330;2023-04-07T10:21:01;11.38;;;1.52;;
35522;SDS011;61478;50.820;4.330;2023-04-07T10:26:22;5.90;;;1.70;;
35522;SDS011;61478;50.820;4.330;2023-04-07T10:28:52;8.07;;;2.10;;
35522;SDS011;61478;50.820;4.330;2023-04-07T10:31:21;8.93;;;1.90;;
35522;SDS011;61478;50.820;4.330;2023-04-07T10:33:49;9.25;;;2.47;;
35522;SDS011;61478;50.820;4.330;2023-04-07T10:36:17;11.75;;;3.65;;
35522;SDS011;61478;50.820;4.330;2023-04-07T10:43:59;12.98;;;3.42;;
35522;SDS011;61478;50.820;4.330;2023-04-07T10:49:30;8.68;;;2.70;;
35522;SDS011;61478;50.820;4.330;2023-04-07T10:54:39;18.35;;;4.05;;
35522;SDS011;61478;50.820;4.330;2023-04-07T10:59:39;12.70;;;2.80;;
35522;SDS011;61478;50.820;4.330;2023-04-07T11:04:52;13.98;;;3.35;;
35522;SDS011;61478;50.820;4.330;2023-04-07T11:07:18;11.25;;;2.83;;
35522;SDS011;61478;50.820;4.330;2023-04-07T11:10:10;7.70;;;2.80;;
35522;SDS011;61478;50.820;4.330;2023-04-07T11:12:37;11.15;;;3.67;;
35522;SDS011;61478;50.820;4.330;2023-04-07T11:15:19;10.90;;;3.13;;
35522;SDS011;61478;50.820;4.330;2023-04-07T11:17:46;12.45;;;3.60;;
35522;SDS011;61478;50.820;4.330;2023-04-07T11:23:17;11.80;;;3.05;;
35522;SDS011;61478;50.820;4.330;2023-04-07T11:25:46;11.63;;;2.97;;
35522;SDS011;61478;50.820;4.330;2023-04-07T11:28:14;15.32;;;2.70;;
35522;SDS011;61478;50.820;4.330;2023-04-07T11:30:45;16.48;;;3.00;;
35522;SDS011;61478;50.820;4.330;2023-04-07T11:33:20;9.07;;;2.67;;
35522;SDS011;61478;50.820;4.330;2023-04-07T11:35:51;10.43;;;2.60;;
35522;SDS011;61478;50.820;4.330;2023-04-07T11:38:26;13.65;;;3.30;;
35522;SDS011;61478;50.820;4.330;2023-04-07T11:41:08;9.25;;;3.58;;
35522;SDS011;61478;50.820;4.330;2023-04-07T11:43:36;12.32;;;2.80;;
35522;SDS011;61478;50.820;4.330;2023-04-07T11:46:03;7.13;;;2.88;;
35522;SDS011;61478;50.820;4.330;2023-04-07T11:48:36;10.90;;;3.80;;
35522;SDS011;61478;50.820;4.330;2023-04-07T11:51:03;11.77;;;3.33;;
35522;SDS011;61478;50.820;4.330;2023-04-07T11:53:31;15.85;;;5.03;;
35522;SDS011;61478;50.820;4.330;2023-04-07T11:56:02;13.20;;;4.15;;
35522;SDS011;61478;50.820;4.330;2023-04-07T11:58:30;12.07;;;3.90;;
35522;SDS011;61478;50.820;4.330;2023-04-07T12:00:57;11.75;;;3.53;;
35522;SDS011;61478;50.820;4.330;2023-04-07T12:03:27;9.70;;;3.78;;
35522;SDS011;61478;50.820;4.330;2023-04-07T12:05:53;10.18;;;3.67;;
35522;SDS011;61478;50.820;4.330;2023-04-07T12:08:19;10.40;;;4.15;;
35522;SDS011;61478;50.820;4.330;2023-04-07T12:10:46;11.38;;;3.65;;
35522;SDS011;61478;50.820;4.330;2023-04-07T12:13:12;18.67;;;3.67;;
35522;SDS011;61478;50.820;4.330;2023-04-07T12:15:39;14.15;;;4.03;;
35522;SDS011;61478;50.820;4.330;2023-04-07T12:18:05;13.27;;;4.95;;
35522;SDS011;61478;50.820;4.330;2023-04-07T12:20:31;17.90;;;4.43;;
35522;SDS011;61478;50.820;4.330;2023-04-07T12:22:57;18.48;;;5.97;;
35522;SDS011;61478;50.820;4.330;2023-04-07T12:25:25;15.70;;;3.22;;
35522;SDS011;61478;50.820;4.330;2023-04-07T12:27:51;11.40;;;3.42;;
35522;SDS011;61478;50.820;4.330;2023-04-07T12:30:17;15.73;;;5.43;;
35522;SDS011;61478;50.820;4.330;2023-04-07T12:32:43;9.75;;;3.33;;
35522;SDS011;61478;50.820;4.330;2023-04-07T12:35:09;10.95;;;3.78;;
35522;SDS011;61478;50.820;4.330;2023-04-07T12:37:38;11.02;;;3.53;;
35522;SDS011;61478;50.820;4.330;2023-04-07T12:40:04;14.43;;;3.80;;
35522;SDS011;61478;50.820;4.330;2023-04-07T12:42:34;12.25;;;3.85;;
35522;SDS011;61478;50.820;4.330;2023-04-07T12:45:00;20.67;;;4.82;;
35522;SDS011;61478;50.820;4.330;2023-04-07T12:47:27;12.45;;;4.28;;
35522;SDS011;61478;50.820;4.330;2023-04-07T12:49:53;10.13;;;4.25;;
35522;SDS011;61478;50.820;4.330;2023-04-07T12:52:19;14.20;;;3.80;;
35522;SDS011;61478;50.820;4.330;2023-04-07T12:54:45;16.20;;;4.00;;
35522;SDS011;61478;50.820;4.330;2023-04-07T12:57:14;10.20;;;4.32;;
35522;SDS011;61478;50.820;4.330;2023-04-07T12:59:40;11.10;;;3.95;;
35522;SDS011;61478;50.820;4.330;2023-04-07T13:02:06;9.57;;;3.95;;
35522;SDS011;61478;50.820;4.330;2023-04-07T13:04:32;15.27;;;4.80;;
35522;SDS011;61478;50.820;4.330;2023-04-07T13:06:59;12.48;;;4.70;;
35522;SDS011;61478;50.820;4.330;2023-04-07T13:09:27;15.05;;;4.35;;
35522;SDS011;61478;50.820;4.330;2023-04-07T13:11:56;7.43;;;3.15;;
35522;SDS011;61478;50.820;4.330;2023-04-07T13:14:22;10.15;;;3.83;;
35522;SDS011;61478;50.820;4.330;2023-04-07T13:16:48;11.40;;;4.05;;
35522;SDS011;61478;50.820;4.330;2023-04-07T13:19:14;10.48;;;3.50;;
35522;SDS011;61478;50.820;4.330;2023-04-07T13:21:41;11.98;;;3.92;;
35522;SDS011;61478;50.820;4.330;2023-04-07T13:24:07;10.80;;;4.07;;
35522;SDS011;61478;50.820;4.330;2023-04-07T13:26:36;12.45;;;3.95;;
35522;SDS011;61478;50.820;4.330;2023-04-07T13:29:02;16.77;;;5.35;;
35522;SDS011;61478;50.820;4.330;2023-04-07T13:31:28;12.45;;;3.20;;
35522;SDS011;61478;50.820;4.330;2023-04-07T13:33:54;13.32;;;3.25;;
35522;SDS011;61478;50.820;4.330;2023-04-07T13:36:20;9.18;;;3.05;;
35522;SDS011;61478;50.820;4.330;2023-04-07T13:38:46;10.38;;;2.88;;
35522;SDS011;61478;50.820;4.330;2023-04-07T13:41:12;13.07;;;3.72;;
35522;SDS011;61478;50.820;4.330;2023-04-07T13:43:44;12.70;;;2.72;;
35522;SDS011;61478;50.820;4.330;2023-04-07T13:46:13;8.45;;;3.03;;
35522;SDS011;61478;50.820;4.330;2023-04-07T13:48:44;10.98;;;2.20;;
35522;SDS011;61478;50.820;4.330;2023-04-07T13:51:10;9.50;;;4.05;;
35522;SDS011;61478;50.820;4.330;2023-04-07T13:53:36;12.15;;;2.47;;
35522;SDS011;61478;50.820;4.330;2023-04-07T13:56:03;13.90;;;6.50;;
35522;SDS011;61478;50.820;4.330;2023-04-07T13:58:32;10.30;;;2.83;;
35522;SDS011;61478;50.820;4.330;2023-04-07T14:00:59;16.90;;;4.43;;
35522;SDS011;61478;50.820;4.330;2023-04-07T14:03:25;17.17;;;4.85;;
35522;SDS011;61478;50.820;4.330;2023-04-07T14:05:52;14.90;;;4.00;;
35522;SDS011;61478;50.820;4.330;2023-04-07T14:08:19;15.35;;;3.28;;
35522;SDS011;61478;50.820;4.330;2023-04-07T14:10:47;13.00;;;3.17;;
35522;SDS011;61478;50.820;4.330;2023-04-07T14:13:14;20.52;;;4.43;;
35522;SDS011;61478;50.820;4.330;2023-04-07T14:15:39;15.88;;;3.20;;
35522;SDS011;61478;50.820;4.330;2023-04-07T14:18:05;18.38;;;3.97;;
35522;SDS011;61478;50.820;4.330;2023-04-07T14:20:31;14.70;;;3.45;;
35522;SDS011;61478;50.820;4.330;2023-04-07T14:22:57;14.80;;;3.40;;
35522;SDS011;61478;50.820;4.330;2023-04-07T14:25:26;9.35;;;3.35;;
35522;SDS011;61478;50.820;4.330;2023-04-07T14:27:52;14.25;;;4.13;;
35522;SDS011;61478;50.820;4.330;2023-04-07T14:30:19;13.85;;;3.45;;
35522;SDS011;61478;50.820;4.330;2023-04-07T14:32:44;17.63;;;4.80;;
35522;SDS011;61478;50.820;4.330;2023-04-07T14:35:10;10.65;;;4.15;;
35522;SDS011;61478;50.820;4.330;2023-04-07T14:37:36;10.68;;;4.53;;
35522;SDS011;61478;50.820;4.330;2023-04-07T14:40:06;15.13;;;3.65;;
35522;SDS011;61478;50.820;4.330;2023-04-07T14:42:32;10.25;;;4.15;;
35522;SDS011;61478;50.820;4.330;2023-04-07T14:44:59;11.18;;;3.58;;
35522;SDS011;61478;50.820;4.330;2023-04-07T14:47:25;12.13;;;3.33;;
35522;SDS011;61478;50.820;4.330;2023-04-07T14:49:51;10.25;;;2.42;;
35522;SDS011;61478;50.820;4.330;2023-04-07T14:52:18;9.95;;;3.10;;
35522;SDS011;61478;50.820;4.330;2023-04-07T14:54:45;13.85;;;3.42;;
35522;SDS011;61478;50.820;4.330;2023-04-07T14:57:12;11.77;;;2.88;;
35522;SDS011;61478;50.820;4.330;2023-04-07T14:59:38;11.50;;;2.38;;
35522;SDS011;61478;50.820;4.330;2023-04-07T15:02:05;9.63;;;2.42;;